createdAt,value
2022-11-24T00:02:56.604Z,13.32
2022-11-24T00:06:12.013Z,10.02
2022-11-24T00:09:17.319Z,13.20
2022-11-24T00:12:20.134Z,15.05
2022-11-24T00:15:22.671Z,12.57
2022-11-24T00:18:24.692Z,12.18
2022-11-24T00:21:28.464Z,10.88
2022-11-24T00:24:32.428Z,10.02
2022-11-24T00:27:35.391Z,10.80
2022-11-24T00:30:39.269Z,10.27
2022-11-24T00:33:41.466Z,12.43
2022-11-24T00:36:44.223Z,10.13
2022-11-24T00:39:46.408Z,13.43
2022-11-24T00:42:48.632Z,12.52
2022-11-24T00:45:50.909Z,9.00
2022-11-24T00:48:54.095Z,10.73
2022-11-24T00:51:56.992Z,9.07
2022-11-24T00:54:59.365Z,12.38
2022-11-24T00:58:01.583Z,8.27
2022-11-24T01:01:25.819Z,12.15
2022-11-24T01:04:28.432Z,9.40
2022-11-24T01:07:31.202Z,9.10
2022-11-24T01:10:33.720Z,5.25
2022-11-24T01:13:35.907Z,6.00
2022-11-24T01:16:38.959Z,5.68
2022-11-24T01:19:41.399Z,8.02
2022-11-24T01:22:47.159Z,5.05
2022-11-24T01:25:49.748Z,4.70
2022-11-24T01:28:56.573Z,6.18
2022-11-24T01:31:58.636Z,5.78
2022-11-24T01:35:01.043Z,6.30
2022-11-24T01:38:03.531Z,4.35
2022-11-24T01:41:22.739Z,8.40
2022-11-24T01:44:31.774Z,6.40
2022-11-24T01:47:43.147Z,11.68
2022-11-24T01:50:49.818Z,6.38
2022-11-24T01:54:01.159Z,5.53
2022-11-24T01:57:13.389Z,4.82
2022-11-24T02:00:20.474Z,6.95
2022-11-24T02:03:30.856Z,6.35
2022-11-24T02:07:25.088Z,9.23
2022-11-24T02:10:30.007Z,4.45
2022-11-24T02:17:41.375Z,7.07
2022-11-24T02:20:45.878Z,5.22
2022-11-24T02:24:17.022Z,5.90
2022-11-24T02:27:23.240Z,9.43
2022-11-24T02:30:25.360Z,4.90
2022-11-24T02:33:27.848Z,5.10
2022-11-24T02:36:30.668Z,5.65
2022-11-24T02:39:32.838Z,7.25
2022-11-24T02:42:43.319Z,5.47
2022-11-24T02:45:48.401Z,4.40
2022-11-24T02:52:18.608Z,10.02
2022-11-24T03:08:56.198Z,6.13
2022-11-24T03:17:00.997Z,6.95
2022-11-24T03:20:28.411Z,8.10
2022-11-24T03:24:06.253Z,8.52
2022-11-24T04:26:47.890Z,9.95
2022-11-24T04:34:57.447Z,8.85
2022-11-24T04:38:03.120Z,10.48
2022-11-24T04:41:05.753Z,10.63
2022-11-24T04:44:07.814Z,9.02
2022-11-24T04:47:21.059Z,21.25
2022-11-24T04:50:24.799Z,8.77
2022-11-24T04:53:30.193Z,9.20
2022-11-24T04:57:31.030Z,15.80
2022-11-24T05:00:33.150Z,7.05
2022-11-24T05:03:36.685Z,6.07
2022-11-24T05:06:39.087Z,10.90
2022-11-24T05:10:00.865Z,6.20
2022-11-24T05:13:13.749Z,6.78
2022-11-24T05:16:15.994Z,8.35
2022-11-24T05:19:19.130Z,7.68
2022-11-24T05:22:21.056Z,10.68
2022-11-24T05:25:23.436Z,9.02
2022-11-24T05:28:25.729Z,11.88
2022-11-24T05:31:28.086Z,16.40
2022-11-24T05:34:36.593Z,13.57
2022-11-24T05:41:05.727Z,10.32
2022-11-24T05:44:07.977Z,25.10
2022-11-24T05:51:39.618Z,14.70
2022-11-24T05:54:50.438Z,10.90
2022-11-24T05:58:00.489Z,9.75
2022-11-24T06:01:06.370Z,13.30
2022-11-24T06:04:08.424Z,22.70
2022-11-24T06:07:12.743Z,15.18
2022-11-24T06:10:18.513Z,14.95
2022-11-24T06:13:22.611Z,17.75
2022-11-24T06:16:24.972Z,15.93
2022-11-24T06:19:27.050Z,15.30
2022-11-24T06:22:29.352Z,12.95
2022-11-24T06:25:31.385Z,15.13
2022-11-24T06:28:33.455Z,11.77
2022-11-24T06:31:35.799Z,14.18
2022-11-24T06:34:38.038Z,19.60
2022-11-24T06:37:41.975Z,15.25
2022-11-24T06:40:44.145Z,18.50
2022-11-24T06:43:53.896Z,14.07
2022-11-24T06:46:59.859Z,13.68
2022-11-24T06:50:02.281Z,14.57
2022-11-24T06:53:04.460Z,11.77
2022-11-24T06:56:15.344Z,14.65
2022-11-24T06:59:21.221Z,8.02
2022-11-24T07:02:24.675Z,9.52
2022-11-24T07:05:27.475Z,8.85
2022-11-24T07:08:29.615Z,12.18
2022-11-24T07:11:31.870Z,8.05
2022-11-24T07:14:34.098Z,10.07
2022-11-24T07:17:38.113Z,11.68
2022-11-24T07:20:40.444Z,11.25
2022-11-24T07:23:42.604Z,7.68
2022-11-24T07:26:45.018Z,10.60
2022-11-24T07:29:47.291Z,6.85
2022-11-24T07:32:49.376Z,8.73
2022-11-24T07:35:52.413Z,14.77
2022-11-24T07:38:54.431Z,8.95
2022-11-24T07:41:56.479Z,14.63
2022-11-24T07:44:58.463Z,12.80
2022-11-24T07:48:00.480Z,14.50
2022-11-24T07:51:04.696Z,15.68
2022-11-24T07:54:07.741Z,10.95
2022-11-24T07:57:09.965Z,13.80
2022-11-24T08:00:13.058Z,13.80
2022-11-24T08:03:15.917Z,16.05
2022-11-24T08:06:28.507Z,11.48
2022-11-24T08:09:31.058Z,16.98
2022-11-24T08:12:34.402Z,16.90
2022-11-24T08:15:37.675Z,16.40
2022-11-24T08:18:39.828Z,13.88
2022-11-24T08:21:41.933Z,12.85
2022-11-24T08:24:48.352Z,19.83
2022-11-24T08:27:50.395Z,15.65
2022-11-24T08:30:52.695Z,19.67
2022-11-24T08:33:56.277Z,18.33
2022-11-24T08:37:00.630Z,15.07
2022-11-24T08:40:02.661Z,16.63
2022-11-24T08:43:04.807Z,17.40
2022-11-24T08:46:10.450Z,18.13
2022-11-24T08:49:14.801Z,20.08
2022-11-24T08:52:17.584Z,16.45
2022-11-24T08:55:20.005Z,12.77
2022-11-24T08:58:22.315Z,12.20
2022-11-24T09:01:26.767Z,12.55
2022-11-24T09:04:29.076Z,14.65
2022-11-24T09:07:31.168Z,15.93
2022-11-24T09:10:33.476Z,13.77
2022-11-24T09:13:36.526Z,16.08
2022-11-24T09:16:38.736Z,21.15
2022-11-24T09:19:40.754Z,11.27
2022-11-24T09:22:43.582Z,10.85
2022-11-24T09:25:45.701Z,14.00
2022-11-24T09:28:48.513Z,12.43
2022-11-24T09:31:51.018Z,18.17
2022-11-24T09:34:52.960Z,12.70
2022-11-24T09:37:55.035Z,20.30
2022-11-24T09:41:26.089Z,12.35
2022-11-24T09:44:49.614Z,13.32
2022-11-24T09:47:59.581Z,19.90
2022-11-24T09:51:05.319Z,10.73
2022-11-24T09:54:21.852Z,16.50
2022-11-24T09:57:27.063Z,10.93
2022-11-24T10:00:30.386Z,6.90
2022-11-24T10:03:42.113Z,6.63
2022-11-24T10:07:19.305Z,5.88
2022-11-24T10:10:29.366Z,5.78
2022-11-24T10:13:31.268Z,3.13
2022-11-24T10:16:48.231Z,4.40
2022-11-24T10:19:58.160Z,11.48
2022-11-24T10:23:18.854Z,7.63
2022-11-24T10:26:37.082Z,6.78
2022-11-24T10:29:42.548Z,8.63
2022-11-24T10:32:48.342Z,5.43
2022-11-24T10:35:53.773Z,5.82
2022-11-24T10:39:28.965Z,6.50
2022-11-24T10:42:35.474Z,10.82
2022-11-24T10:45:40.231Z,6.72
2022-11-24T10:48:49.905Z,9.35
2022-11-24T10:52:15.317Z,8.10
2022-11-24T10:55:17.497Z,9.93
2022-11-24T10:58:25.063Z,14.73
2022-11-24T11:01:37.552Z,6.88
2022-11-24T11:04:39.687Z,4.97
2022-11-24T11:07:41.788Z,11.70
2022-11-24T11:10:45.527Z,12.57
2022-11-24T11:13:56.847Z,7.40
2022-11-24T11:17:03.011Z,4.60
2022-11-24T11:20:32.181Z,10.43
2022-11-24T11:23:36.118Z,7.90
2022-11-24T11:26:39.462Z,7.55
2022-11-24T11:36:27.397Z,10.30
2022-11-24T11:39:35.843Z,8.57
2022-11-24T11:43:05.989Z,14.20
2022-11-24T11:46:08.125Z,10.95
2022-11-24T11:49:13.759Z,12.55
2022-11-24T11:52:43.789Z,14.75
2022-11-24T11:56:14.462Z,16.58
2022-11-24T11:59:19.095Z,22.30
2022-11-24T12:02:56.443Z,15.23
2022-11-24T12:06:16.697Z,11.20
2022-11-24T12:09:27.833Z,15.23
2022-11-24T12:13:06.721Z,12.32
2022-11-24T12:16:30.192Z,13.68
2022-11-24T12:19:46.895Z,14.18
2022-11-24T12:23:18.155Z,15.85
2022-11-24T12:26:57.818Z,13.57
2022-11-24T12:30:13.557Z,10.65
2022-11-24T12:33:31.296Z,12.48
2022-11-24T12:36:49.915Z,6.75
2022-11-24T12:40:31.434Z,7.65
2022-11-24T12:43:39.805Z,9.43
2022-11-24T12:47:17.983Z,9.10
2022-11-24T12:50:24.610Z,6.55
2022-11-24T12:53:34.093Z,7.93
2022-11-24T12:57:00.169Z,9.30
2022-11-24T13:00:07.286Z,14.95
2022-11-24T13:03:30.358Z,10.95
2022-11-24T13:06:47.468Z,5.82
2022-11-24T13:10:54.683Z,7.38
2022-11-24T13:13:59.835Z,5.00
2022-11-24T13:17:36.330Z,7.85
2022-11-24T13:20:41.767Z,10.13
2022-11-24T13:23:44.664Z,8.88
2022-11-24T13:26:52.268Z,6.90
2022-11-24T13:29:55.485Z,9.95
2022-11-24T13:33:27.317Z,10.00
2022-11-24T13:36:34.644Z,12.48
2022-11-24T13:39:53.228Z,6.38
2022-11-24T13:42:58.479Z,6.32
2022-11-24T13:46:01.851Z,10.80
2022-11-24T13:49:14.491Z,9.98
2022-11-24T13:52:36.843Z,14.82
2022-11-24T13:55:41.158Z,11.80
2022-11-24T13:58:56.722Z,15.07
2022-11-24T14:01:59.187Z,16.80
2022-11-24T14:05:01.895Z,10.85
2022-11-24T14:08:07.275Z,13.80
2022-11-24T14:11:16.934Z,9.40
2022-11-24T14:14:21.245Z,13.35
2022-11-24T14:17:29.884Z,12.85
2022-11-24T14:20:33.258Z,14.65
2022-11-24T14:23:42.309Z,13.35
2022-11-24T14:26:47.132Z,16.60
2022-11-24T14:30:15.529Z,10.43
2022-11-24T14:33:20.331Z,20.38
2022-11-24T14:36:22.356Z,15.50
2022-11-24T14:39:26.731Z,12.10
2022-11-24T14:42:28.778Z,13.52
2022-11-24T14:45:37.771Z,12.10
2022-11-24T14:48:50.016Z,17.00
2022-11-24T14:52:04.194Z,11.13
2022-11-24T14:55:22.454Z,12.30
2022-11-24T14:58:37.695Z,9.52
2022-11-24T15:01:42.875Z,13.13
2022-11-24T15:05:03.590Z,12.02
2022-11-24T15:08:06.309Z,11.13
2022-11-24T15:11:08.611Z,22.50
2022-11-24T15:14:46.173Z,13.40
2022-11-24T15:17:52.508Z,9.77
2022-11-24T15:20:55.116Z,14.38
2022-11-24T15:24:17.826Z,15.98
2022-11-24T15:27:19.899Z,17.83
2022-11-24T15:30:21.895Z,15.63
2022-11-24T15:33:25.004Z,16.65
2022-11-24T15:36:27.868Z,15.90
2022-11-24T15:39:29.949Z,13.93
2022-11-24T15:42:32.000Z,13.23
2022-11-24T15:45:34.825Z,13.75
2022-11-24T15:48:38.784Z,13.93
2022-11-24T15:51:46.081Z,14.63
2022-11-24T15:54:54.194Z,15.32
2022-11-24T15:57:56.388Z,21.83
2022-11-24T16:00:58.679Z,14.00
2022-11-24T16:04:01.884Z,18.63
2022-11-24T16:07:07.004Z,14.32
2022-11-24T16:10:24.007Z,16.67
2022-11-24T16:13:26.142Z,13.63
2022-11-24T16:16:28.284Z,16.80
2022-11-24T16:19:37.343Z,16.00
2022-11-24T16:22:42.692Z,12.43
2022-11-24T16:25:44.737Z,13.65
2022-11-24T16:28:46.839Z,15.55
2022-11-24T16:31:52.731Z,16.92
2022-11-24T16:34:54.889Z,14.80
2022-11-24T16:37:57.325Z,14.85
2022-11-24T16:41:02.937Z,12.20
2022-11-24T16:44:05.121Z,17.20
2022-11-24T16:47:11.949Z,13.35
2022-11-24T16:50:14.323Z,16.80
2022-11-24T16:53:16.495Z,15.45
2022-11-24T16:56:18.611Z,15.02
2022-11-24T16:59:20.665Z,13.60
2022-11-24T17:02:23.000Z,15.68
2022-11-24T17:05:25.810Z,11.60
2022-11-24T17:08:34.035Z,15.02
2022-11-24T17:11:36.426Z,17.95
2022-11-24T17:14:38.577Z,14.27
2022-11-24T17:18:01.312Z,14.73
2022-11-24T17:21:09.683Z,16.27
2022-11-24T17:24:17.631Z,17.30
2022-11-24T17:27:19.979Z,20.95
2022-11-24T17:30:22.384Z,18.15
2022-11-24T17:33:24.619Z,23.10
2022-11-24T17:36:27.583Z,21.85
2022-11-24T17:39:29.943Z,14.32
2022-11-24T17:42:31.944Z,15.90
2022-11-24T17:45:34.139Z,14.57
2022-11-24T17:48:36.883Z,15.55
2022-11-24T17:51:39.009Z,10.30
2022-11-24T17:54:56.566Z,11.45
2022-11-24T17:57:59.410Z,7.97
2022-11-24T18:01:01.934Z,8.32
2022-11-24T18:04:04.406Z,9.85
2022-11-24T18:07:06.489Z,10.18
2022-11-24T18:10:08.957Z,9.95
2022-11-24T18:13:27.434Z,10.65
2022-11-24T18:16:35.405Z,13.10
2022-11-24T18:19:37.703Z,5.70
2022-11-24T18:23:04.429Z,15.63
2022-11-24T18:26:05.348Z,14.77
2022-11-24T18:29:08.139Z,16.83
2022-11-24T18:32:10.362Z,19.70
2022-11-24T18:35:12.520Z,16.30
2022-11-24T18:38:14.653Z,20.00
2022-11-24T18:41:18.154Z,13.65
2022-11-24T18:44:20.751Z,18.05
2022-11-24T18:47:25.683Z,12.35
2022-11-24T18:50:27.781Z,14.10
2022-11-24T18:53:29.942Z,11.30
2022-11-24T18:56:34.542Z,16.35
2022-11-24T18:59:37.297Z,14.73
2022-11-24T19:02:39.904Z,18.33
2022-11-24T19:05:43.371Z,21.08
2022-11-24T19:08:45.897Z,15.57
2022-11-24T19:11:48.059Z,17.58
2022-11-24T19:14:50.310Z,18.35
2022-11-24T19:17:52.327Z,23.33
2022-11-24T19:20:58.040Z,23.52
2022-11-24T19:24:04.975Z,20.02
2022-11-24T19:27:10.996Z,19.20
2022-11-24T19:30:13.284Z,22.23
2022-11-24T19:33:15.764Z,35.17
2022-11-24T19:36:20.573Z,17.95
2022-11-24T19:39:23.293Z,15.65
2022-11-24T19:42:27.102Z,17.40
2022-11-24T19:45:29.506Z,19.77
2022-11-24T19:53:03.555Z,11.68
2022-11-24T19:56:14.680Z,23.80
2022-11-24T19:59:20.713Z,62.15
2022-11-24T20:02:31.990Z,42.50
2022-11-24T20:05:34.342Z,10.55
2022-11-24T20:08:38.182Z,10.43
2022-11-24T20:11:41.210Z,17.45
2022-11-24T20:14:44.211Z,12.07
2022-11-24T20:17:46.770Z,12.98
2022-11-24T20:20:49.076Z,13.07
2022-11-24T20:23:55.486Z,14.43
2022-11-24T20:27:00.823Z,12.85
2022-11-24T20:30:03.425Z,10.63
2022-11-24T20:33:09.726Z,15.23
2022-11-24T20:36:14.184Z,11.40
2022-11-24T20:39:36.803Z,31.90
2022-11-24T20:42:41.412Z,13.52
2022-11-24T20:45:43.575Z,10.55
2022-11-24T20:48:46.693Z,15.13
2022-11-24T20:51:49.042Z,10.27
2022-11-24T20:54:51.154Z,15.00
2022-11-24T20:57:53.229Z,9.82
2022-11-24T21:00:55.582Z,11.30
2022-11-24T21:03:59.828Z,12.30
2022-11-24T21:07:02.111Z,13.88
2022-11-24T21:10:04.687Z,9.93
2022-11-24T21:13:07.115Z,11.85
2022-11-24T21:16:19.953Z,11.23
2022-11-24T21:19:24.179Z,8.55
2022-11-24T21:22:27.267Z,14.25
2022-11-24T21:25:30.868Z,11.52
2022-11-24T21:28:33.878Z,10.75
2022-11-24T21:31:39.735Z,12.30
2022-11-24T21:34:42.276Z,12.07
2022-11-24T21:37:44.571Z,11.18
2022-11-24T21:40:50.297Z,14.00
2022-11-24T21:43:55.611Z,12.48
2022-11-24T21:47:01.479Z,13.30
2022-11-24T21:50:09.187Z,11.20
2022-11-24T21:53:11.810Z,10.17
2022-11-24T21:56:18.175Z,15.18
2022-11-24T21:59:22.609Z,11.57
2022-11-24T22:02:26.454Z,14.85
2022-11-24T22:05:44.112Z,16.67
2022-11-24T22:11:54.138Z,16.83
2022-11-24T22:14:56.568Z,13.05
2022-11-24T22:17:58.679Z,16.40
2022-11-24T22:21:03.026Z,19.77
2022-11-24T22:24:05.385Z,16.90
2022-11-24T22:27:07.572Z,16.65
2022-11-24T22:30:10.781Z,17.65
2022-11-24T22:33:14.034Z,20.15
2022-11-24T22:36:18.804Z,21.30
2022-11-24T22:39:20.803Z,20.15
2022-11-24T22:42:23.002Z,21.88
2022-11-24T22:45:25.094Z,17.80
2022-11-24T22:48:29.114Z,21.98
2022-11-24T22:51:34.203Z,24.33
2022-11-24T22:54:36.701Z,20.33
2022-11-24T22:57:39.063Z,20.45
2022-11-24T23:00:54.287Z,23.38
2022-11-24T23:04:00.996Z,18.67
2022-11-24T23:07:03.821Z,20.60
2022-11-24T23:10:06.869Z,19.10
2022-11-24T23:13:10.848Z,23.48
2022-11-24T23:16:15.691Z,22.38
2022-11-24T23:19:18.832Z,28.23
2022-11-24T23:22:21.220Z,25.08
2022-11-24T23:25:24.319Z,24.00
2022-11-24T23:28:34.712Z,28.60
2022-11-24T23:31:40.073Z,20.10
2022-11-24T23:34:43.035Z,24.25
2022-11-24T23:38:06.976Z,26.27
2022-11-24T23:41:12.819Z,27.75
2022-11-24T23:44:15.619Z,22.17
2022-11-24T23:47:18.974Z,27.10
2022-11-24T23:50:23.319Z,23.13
2022-11-24T23:53:28.805Z,22.10
2022-11-24T23:56:33.358Z,31.63
2022-11-24T23:59:35.732Z,22.95
